createdAt,value
2019-05-26T00:01:47.874Z,8.53
2019-05-26T00:04:18.503Z,6.85
2019-05-26T00:06:49.520Z,5.55
2019-05-26T00:09:20.618Z,6.67
2019-05-26T00:11:51.345Z,10.78
2019-05-26T00:14:22.703Z,6.97
2019-05-26T00:16:54.403Z,9.65
2019-05-26T00:19:25.444Z,8.75
2019-05-26T00:21:55.956Z,8.20
2019-05-26T00:24:27.186Z,7.72
2019-05-26T00:26:57.888Z,7.20
2019-05-26T00:29:29.599Z,8.43
2019-05-26T00:32:00.740Z,7.92
2019-05-26T00:34:31.734Z,8.33
2019-05-26T00:37:02.353Z,7.45
2019-05-26T00:39:32.918Z,7.75
2019-05-26T00:42:03.938Z,8.05
2019-05-26T00:44:36.096Z,6.90
2019-05-26T00:47:07.354Z,6.25
2019-05-26T00:49:38.349Z,7.67
2019-05-26T00:52:09.260Z,8.38
2019-05-26T00:54:40.222Z,11.80
2019-05-26T00:57:11.171Z,8.88
2019-05-26T00:59:42.240Z,7.78
2019-05-26T01:02:13.489Z,7.90
2019-05-26T01:04:44.335Z,11.18
2019-05-26T01:07:15.918Z,9.78
2019-05-26T01:09:46.915Z,9.98
2019-05-26T01:12:17.564Z,7.17
2019-05-26T01:14:49.084Z,11.28
2019-05-26T01:17:20.102Z,8.90
2019-05-26T01:19:51.487Z,11.03
2019-05-26T01:22:23.653Z,11.08
2019-05-26T01:24:54.686Z,12.85
2019-05-26T01:27:25.702Z,7.10
2019-05-26T01:29:57.197Z,9.03
2019-05-26T01:32:28.152Z,10.32
2019-05-26T01:34:59.094Z,9.25
2019-05-26T01:37:29.895Z,9.80
2019-05-26T01:40:01.154Z,10.70
2019-05-26T01:42:32.181Z,8.13
2019-05-26T01:45:02.952Z,9.30
2019-05-26T01:47:33.956Z,10.58
2019-05-26T01:50:05.243Z,9.08
2019-05-26T01:52:36.393Z,11.97
2019-05-26T01:55:07.422Z,9.98
2019-05-26T01:57:38.438Z,10.85
2019-05-26T02:00:10.072Z,8.30
2019-05-26T02:02:41.017Z,9.98
2019-05-26T02:05:12.196Z,15.48
2019-05-26T02:07:43.459Z,12.70
2019-05-26T02:10:14.685Z,12.82
2019-05-26T02:12:45.748Z,12.10
2019-05-26T02:15:18.358Z,13.43
2019-05-26T02:17:49.449Z,12.78
2019-05-26T02:20:20.724Z,16.65
2019-05-26T02:22:51.613Z,13.93
2019-05-26T02:25:22.781Z,15.32
2019-05-26T02:27:53.703Z,13.32
2019-05-26T02:30:24.962Z,14.15
2019-05-26T02:32:56.583Z,11.43
2019-05-26T02:35:27.669Z,13.38
2019-05-26T02:37:59.553Z,11.68
2019-05-26T02:40:30.476Z,14.78
2019-05-26T02:43:01.418Z,12.98
2019-05-26T02:45:32.428Z,13.53
2019-05-26T02:48:03.300Z,17.23
2019-05-26T02:50:34.235Z,12.28
2019-05-26T02:53:05.201Z,13.45
2019-05-26T02:55:35.809Z,13.80
2019-05-26T02:58:06.342Z,14.55
2019-05-26T03:00:47.157Z,13.40
2019-05-26T03:03:18.350Z,12.63
2019-05-26T03:05:49.573Z,12.98
2019-05-26T03:08:21.253Z,15.20
2019-05-26T03:10:54.517Z,10.63
2019-05-26T03:13:26.517Z,12.78
2019-05-26T03:15:59.136Z,14.25
2019-05-26T03:18:33.382Z,13.93
2019-05-26T03:21:05.364Z,10.05
2019-05-26T03:23:36.329Z,8.55
2019-05-26T03:26:07.412Z,13.10
2019-05-26T03:28:38.457Z,13.30
2019-05-26T03:31:09.058Z,11.73
2019-05-26T03:33:39.567Z,10.85
2019-05-26T03:36:10.938Z,8.68
2019-05-26T03:38:41.550Z,11.45
2019-05-26T03:41:12.596Z,14.30
2019-05-26T03:43:43.744Z,8.98
2019-05-26T03:46:19.200Z,10.80
2019-05-26T03:48:50.813Z,11.22
2019-05-26T03:51:22.849Z,11.83
2019-05-26T03:53:53.754Z,13.58
2019-05-26T03:56:24.816Z,10.85
2019-05-26T03:58:55.432Z,9.20
2019-05-26T04:01:26.057Z,10.32
2019-05-26T04:03:57.156Z,11.05
2019-05-26T04:06:28.161Z,10.88
2019-05-26T04:08:58.757Z,12.88
2019-05-26T04:11:29.713Z,8.43
2019-05-26T04:14:00.683Z,13.83
2019-05-26T04:16:31.919Z,12.20
2019-05-26T04:19:02.840Z,13.55
2019-05-26T04:21:33.718Z,16.75
2019-05-26T04:24:05.267Z,11.63
2019-05-26T04:26:35.737Z,11.70
2019-05-26T04:29:06.442Z,12.43
2019-05-26T04:31:37.571Z,9.73
2019-05-26T04:34:08.517Z,12.15
2019-05-26T04:36:39.445Z,10.68
2019-05-26T04:39:10.566Z,13.05
2019-05-26T04:41:41.136Z,12.20
2019-05-26T04:44:11.660Z,11.33
2019-05-26T04:46:42.673Z,11.93
2019-05-26T04:49:13.587Z,10.48
2019-05-26T04:51:44.532Z,14.40
2019-05-26T04:54:15.716Z,11.10
2019-05-26T04:56:46.414Z,9.55
2019-05-26T04:59:17.065Z,13.93
2019-05-26T05:01:47.617Z,7.50
2019-05-26T05:04:18.165Z,11.70
2019-05-26T05:06:48.756Z,16.93
2019-05-26T05:09:19.698Z,10.35
2019-05-26T05:11:50.317Z,13.10
2019-05-26T05:14:20.962Z,11.38
2019-05-26T05:16:52.641Z,10.32
2019-05-26T05:19:23.215Z,9.95
2019-05-26T05:21:53.906Z,13.75
2019-05-26T05:24:24.425Z,10.93
2019-05-26T05:26:56.041Z,11.90
2019-05-26T05:29:26.728Z,10.28
2019-05-26T05:31:57.693Z,12.70
2019-05-26T05:34:28.881Z,9.40
2019-05-26T05:36:59.445Z,11.08
2019-05-26T05:39:30.506Z,11.08
2019-05-26T05:42:01.205Z,11.33
2019-05-26T05:44:31.772Z,12.28
2019-05-26T05:47:02.363Z,9.75
2019-05-26T05:49:32.886Z,13.03
2019-05-26T05:52:03.461Z,13.70
2019-05-26T05:54:33.984Z,14.05
2019-05-26T05:57:04.702Z,11.00
2019-05-26T05:59:35.303Z,11.97
2019-05-26T06:02:05.982Z,13.83
2019-05-26T06:04:36.600Z,10.78
2019-05-26T06:07:07.331Z,15.72
2019-05-26T06:09:37.957Z,11.57
2019-05-26T06:12:08.551Z,10.55
2019-05-26T06:14:39.200Z,13.28
2019-05-26T06:17:10.619Z,17.48
2019-05-26T06:19:41.409Z,10.45
2019-05-26T06:22:11.267Z,11.65
2019-05-26T06:24:41.863Z,12.20
2019-05-26T06:27:12.615Z,11.90
2019-05-26T06:29:57.853Z,12.18
2019-05-26T06:32:15.196Z,11.73
2019-05-26T06:34:45.954Z,12.73
2019-05-26T06:37:16.571Z,12.37
2019-05-26T06:39:47.508Z,9.63
2019-05-26T06:42:18.148Z,12.43
2019-05-26T06:44:53.682Z,10.20
2019-05-26T06:47:21.388Z,9.65
2019-05-26T06:49:51.920Z,12.63
2019-05-26T06:52:22.456Z,9.85
2019-05-26T06:54:52.981Z,9.68
2019-05-26T06:57:23.549Z,8.80
2019-05-26T06:59:54.302Z,9.85
2019-05-26T07:02:25.002Z,9.95
2019-05-26T07:04:55.602Z,12.00
2019-05-26T07:07:26.205Z,9.80
2019-05-26T07:09:56.818Z,9.58
2019-05-26T07:12:27.434Z,8.65
2019-05-26T07:14:57.982Z,9.73
2019-05-26T07:17:30.230Z,8.18
2019-05-26T07:20:00.089Z,10.55
2019-05-26T07:22:30.739Z,11.88
2019-05-26T07:25:01.446Z,6.70
2019-05-26T07:27:32.116Z,10.90
2019-05-26T07:30:02.778Z,6.40
2019-05-26T07:32:34.593Z,7.25
2019-05-26T07:35:05.196Z,9.38
2019-05-26T07:37:35.798Z,8.23
2019-05-26T07:40:05.782Z,8.50
2019-05-26T07:42:35.597Z,7.70
2019-05-26T07:45:08.500Z,8.00
2019-05-26T07:47:38.489Z,8.18
2019-05-26T07:50:08.508Z,10.05
2019-05-26T07:52:38.380Z,8.45
2019-05-26T07:55:09.848Z,11.97
2019-05-26T07:57:40.437Z,7.95
2019-05-26T08:00:11.129Z,9.25
2019-05-26T08:02:43.654Z,8.03
2019-05-26T08:05:14.292Z,11.18
2019-05-26T08:07:44.295Z,9.58
2019-05-26T08:10:14.280Z,9.10
2019-05-26T08:12:44.147Z,12.50
2019-05-26T08:15:15.519Z,10.70
2019-05-26T08:17:45.435Z,8.93
2019-05-26T08:20:15.901Z,10.55
2019-05-26T08:22:46.455Z,8.60
2019-05-26T08:25:17.408Z,10.72
2019-05-26T08:27:47.420Z,9.00
2019-05-26T08:30:17.234Z,6.83
2019-05-26T08:32:47.828Z,8.85
2019-05-26T08:35:18.437Z,7.97
2019-05-26T08:37:49.389Z,9.83
2019-05-26T08:40:19.890Z,8.45
2019-05-26T08:42:50.201Z,9.40
2019-05-26T08:45:21.970Z,9.45
2019-05-26T08:47:52.789Z,9.00
2019-05-26T08:50:23.516Z,8.45
2019-05-26T08:52:54.197Z,7.97
2019-05-26T08:55:25.508Z,10.58
2019-05-26T08:57:56.020Z,5.60
2019-05-26T09:00:26.594Z,9.95
2019-05-26T09:02:57.167Z,7.95
2019-05-26T09:05:27.827Z,9.30
2019-05-26T09:07:58.441Z,13.20
2019-05-26T09:10:29.175Z,6.60
2019-05-26T09:13:01.539Z,7.05
2019-05-26T09:15:32.212Z,9.63
2019-05-26T09:18:02.804Z,11.15
2019-05-26T09:20:33.495Z,7.20
2019-05-26T09:23:04.140Z,10.13
2019-05-26T09:25:35.885Z,7.87
2019-05-26T09:28:06.604Z,8.43
2019-05-26T09:30:37.318Z,7.08
2019-05-26T09:33:07.878Z,7.58
2019-05-26T09:35:38.525Z,7.80
2019-05-26T09:38:09.131Z,8.58
2019-05-26T09:40:39.830Z,10.58
2019-05-26T09:43:16.266Z,13.45
2019-05-26T09:45:43.956Z,11.33
2019-05-26T09:48:14.583Z,12.13
2019-05-26T09:50:45.176Z,10.65
2019-05-26T09:53:16.229Z,10.25
2019-05-26T09:55:46.799Z,8.40
2019-05-26T09:58:19.730Z,10.18
2019-05-26T10:00:50.381Z,5.97
2019-05-26T10:03:22.091Z,8.05
2019-05-26T10:05:52.774Z,9.48
2019-05-26T10:08:23.374Z,12.05
2019-05-26T10:10:54.030Z,7.55
2019-05-26T10:13:31.898Z,11.95
2019-05-26T10:15:56.857Z,9.85
2019-05-26T10:18:27.461Z,7.50
2019-05-26T10:20:58.534Z,8.38
2019-05-26T10:23:29.154Z,11.65
2019-05-26T10:25:59.872Z,12.18
2019-05-26T10:28:30.456Z,11.40
2019-05-26T10:31:01.111Z,17.55
2019-05-26T10:33:31.130Z,7.05
2019-05-26T10:36:01.646Z,7.90
2019-05-26T10:38:32.343Z,7.70
2019-05-26T10:41:03.297Z,10.50
2019-05-26T10:43:46.371Z,12.20
2019-05-26T10:46:06.280Z,5.95
2019-05-26T10:48:36.916Z,6.67
2019-05-26T10:51:07.510Z,4.85
2019-05-26T10:53:38.046Z,6.03
2019-05-26T10:56:09.194Z,7.83
2019-05-26T10:58:39.838Z,10.08
2019-05-26T11:01:10.471Z,14.20
2019-05-26T11:03:41.102Z,12.37
2019-05-26T11:06:12.424Z,12.85
2019-05-26T11:08:43.127Z,11.38
2019-05-26T11:11:13.832Z,14.10
2019-05-26T11:13:44.458Z,13.35
2019-05-26T11:16:15.270Z,12.35
2019-05-26T11:18:45.860Z,9.88
2019-05-26T11:21:16.537Z,9.68
2019-05-26T11:23:47.188Z,7.20
2019-05-26T11:26:18.955Z,9.95
2019-05-26T11:28:49.766Z,7.42
2019-05-26T11:31:20.411Z,5.58
2019-05-26T11:33:52.239Z,6.62
2019-05-26T11:36:22.868Z,8.53
2019-05-26T11:38:54.421Z,10.78
2019-05-26T11:41:25.101Z,5.95
2019-05-26T11:43:55.666Z,8.95
2019-05-26T11:46:26.262Z,8.50
2019-05-26T11:48:56.914Z,9.88
2019-05-26T11:51:27.957Z,8.30
2019-05-26T11:53:58.605Z,7.80
2019-05-26T11:56:31.438Z,7.37
2019-05-26T11:59:02.079Z,7.70
2019-05-26T12:01:33.120Z,9.58
2019-05-26T12:04:03.696Z,4.90
2019-05-26T12:06:34.393Z,6.72
2019-05-26T12:09:07.071Z,11.05
2019-05-26T12:11:37.687Z,5.67
2019-05-26T12:14:08.275Z,3.72
2019-05-26T12:16:38.929Z,8.23
2019-05-26T12:19:09.501Z,10.88
2019-05-26T12:21:40.924Z,8.83
2019-05-26T12:24:11.582Z,6.28
2019-05-26T12:26:42.214Z,4.85
2019-05-26T12:29:12.789Z,10.60
2019-05-26T12:31:43.477Z,7.30
2019-05-26T12:34:14.229Z,12.43
2019-05-26T12:36:44.785Z,8.75
2019-05-26T12:39:15.486Z,7.17
2019-05-26T12:41:46.465Z,6.65
2019-05-26T12:44:17.084Z,7.75
2019-05-26T12:46:52.003Z,6.03
2019-05-26T12:49:27.373Z,3.75
2019-05-26T12:51:55.848Z,9.10
2019-05-26T12:54:26.498Z,7.95
2019-05-26T12:56:57.038Z,8.53
2019-05-26T12:59:30.181Z,11.08
2019-05-26T13:02:00.867Z,9.03
2019-05-26T13:04:30.886Z,10.75
2019-05-26T13:07:01.483Z,9.28
2019-05-26T13:09:32.257Z,8.53
2019-05-26T13:12:02.284Z,5.75
2019-05-26T13:14:33.880Z,13.13
2019-05-26T13:17:05.446Z,5.60
2019-05-26T13:19:36.105Z,8.35
2019-05-26T13:22:07.133Z,8.63
2019-05-26T13:24:37.053Z,7.42
2019-05-26T13:27:07.596Z,8.18
2019-05-26T13:29:38.271Z,5.47
2019-05-26T13:32:08.912Z,7.17
2019-05-26T13:34:39.573Z,10.38
2019-05-26T13:37:10.173Z,9.03
2019-05-26T13:39:40.767Z,10.43
2019-05-26T13:42:11.781Z,9.35
2019-05-26T13:44:42.353Z,7.87
2019-05-26T13:47:25.342Z,7.90
2019-05-26T13:49:45.439Z,7.28
2019-05-26T13:52:15.334Z,5.85
2019-05-26T13:54:45.209Z,7.08
2019-05-26T13:57:15.689Z,6.25
2019-05-26T13:59:46.420Z,6.83
2019-05-26T14:02:18.434Z,5.83
2019-05-26T14:04:49.071Z,6.22
2019-05-26T14:07:20.404Z,4.37
2019-05-26T14:09:53.419Z,5.10
2019-05-26T14:12:24.126Z,5.62
2019-05-26T14:14:55.535Z,5.67
2019-05-26T14:17:27.237Z,7.33
2019-05-26T14:19:59.706Z,9.30
2019-05-26T14:22:30.437Z,8.40
2019-05-26T14:25:00.998Z,11.30
2019-05-26T14:27:31.576Z,9.63
2019-05-26T14:30:02.222Z,11.48
2019-05-26T14:32:32.914Z,10.55
2019-05-26T14:35:18.260Z,15.05
2019-05-26T14:37:48.894Z,15.65
2019-05-26T14:40:19.915Z,7.80
2019-05-26T14:42:51.686Z,8.33
2019-05-26T14:45:22.937Z,8.28
2019-05-26T14:47:53.751Z,6.08
2019-05-26T14:50:27.409Z,6.78
2019-05-26T14:52:58.481Z,9.25
2019-05-26T14:55:29.472Z,10.75
2019-05-26T14:58:14.388Z,7.97
2019-05-26T15:00:33.034Z,6.70
2019-05-26T15:03:03.218Z,9.53
2019-05-26T15:05:34.164Z,10.88
2019-05-26T15:08:05.740Z,5.78
2019-05-26T15:10:37.241Z,6.62
2019-05-26T15:13:08.631Z,5.58
2019-05-26T15:15:40.406Z,6.28
2019-05-26T15:18:11.462Z,8.65
2019-05-26T15:20:42.817Z,4.47
2019-05-26T15:23:13.869Z,4.85
2019-05-26T15:25:45.405Z,7.58
2019-05-26T15:28:16.421Z,6.90
2019-05-26T15:30:46.983Z,6.62
2019-05-26T15:33:17.603Z,6.40
2019-05-26T15:35:48.571Z,4.67
2019-05-26T15:38:19.178Z,4.90
2019-05-26T15:40:50.597Z,4.15
2019-05-26T15:43:21.581Z,8.33
2019-05-26T15:45:52.847Z,5.45
2019-05-26T15:48:23.899Z,5.90
2019-05-26T15:50:54.997Z,5.60
2019-05-26T15:53:26.113Z,9.25
2019-05-26T15:55:56.726Z,14.60
2019-05-26T15:58:27.449Z,7.42
2019-05-26T16:00:58.158Z,4.83
2019-05-26T16:03:29.432Z,5.12
2019-05-26T16:06:00.491Z,3.92
2019-05-26T16:08:31.628Z,6.53
2019-05-26T16:11:02.731Z,7.03
2019-05-26T16:13:33.915Z,6.55
2019-05-26T16:16:05.322Z,5.00
2019-05-26T16:18:36.529Z,3.72
2019-05-26T16:21:19.134Z,12.10
2019-05-26T16:23:41.373Z,6.58
2019-05-26T16:26:13.700Z,5.15
2019-05-26T16:28:44.786Z,6.72
2019-05-26T16:31:15.964Z,3.62
2019-05-26T16:33:48.107Z,3.92
2019-05-26T16:36:21.411Z,7.17
2019-05-26T16:38:52.784Z,9.40
2019-05-26T16:41:23.959Z,8.78
2019-05-26T16:43:55.338Z,8.70
2019-05-26T16:46:26.260Z,5.50
2019-05-26T16:48:56.859Z,4.08
2019-05-26T16:51:29.525Z,5.55
2019-05-26T16:54:00.417Z,5.15
2019-05-26T16:56:31.434Z,5.35
2019-05-26T16:59:02.797Z,6.87
2019-05-26T17:01:34.677Z,4.45
2019-05-26T17:04:05.862Z,6.78
2019-05-26T17:06:36.941Z,5.00
2019-05-26T17:09:08.940Z,5.15
2019-05-26T17:11:39.581Z,5.85
2019-05-26T17:14:10.679Z,8.35
2019-05-26T17:16:41.397Z,8.40
2019-05-26T17:19:12.720Z,6.30
2019-05-26T17:21:43.696Z,6.03
2019-05-26T17:24:14.364Z,6.90
2019-05-26T17:26:45.276Z,3.22
2019-05-26T17:29:16.714Z,5.97
2019-05-26T17:31:47.354Z,6.70
2019-05-26T17:34:18.051Z,4.35
2019-05-26T17:36:49.664Z,5.45
2019-05-26T17:39:20.289Z,4.00
2019-05-26T17:41:50.937Z,3.95
2019-05-26T17:44:21.670Z,8.33
2019-05-26T17:46:52.194Z,7.45
2019-05-26T17:49:26.131Z,5.33
2019-05-26T17:51:56.843Z,4.37
2019-05-26T17:54:27.572Z,4.08
2019-05-26T17:56:58.212Z,3.12
2019-05-26T17:59:29.160Z,6.05
2019-05-26T18:01:59.718Z,5.12
2019-05-26T18:04:30.284Z,7.30
2019-05-26T18:07:00.814Z,7.83
2019-05-26T18:09:44.240Z,4.60
2019-05-26T18:12:09.633Z,6.17
2019-05-26T18:14:40.822Z,4.67
2019-05-26T18:17:11.440Z,6.10
2019-05-26T18:19:43.015Z,4.92
2019-05-26T18:22:13.689Z,5.85
2019-05-26T18:24:54.840Z,5.20
2019-05-26T18:27:18.869Z,8.05
2019-05-26T18:29:49.504Z,4.20
2019-05-26T18:32:20.613Z,5.40
2019-05-26T18:34:55.189Z,4.47
2019-05-26T18:37:27.388Z,3.87
2019-05-26T18:39:58.101Z,5.67
2019-05-26T18:42:28.719Z,8.23
2019-05-26T18:44:59.307Z,6.28
2019-05-26T18:47:29.866Z,7.10
2019-05-26T18:50:00.542Z,6.62
2019-05-26T18:52:31.300Z,4.83
2019-05-26T18:55:02.672Z,8.45
2019-05-26T18:57:34.368Z,5.40
2019-05-26T19:00:06.351Z,6.10
2019-05-26T19:02:39.472Z,8.90
2019-05-26T19:05:10.355Z,8.83
2019-05-26T19:07:41.901Z,8.90
2019-05-26T19:10:14.233Z,9.40
2019-05-26T19:12:45.594Z,5.70
2019-05-26T19:15:17.073Z,7.62
2019-05-26T19:17:48.070Z,4.35
2019-05-26T19:20:20.647Z,7.40
2019-05-26T19:22:53.394Z,5.58
2019-05-26T19:25:24.052Z,5.45
2019-05-26T19:27:54.792Z,8.78
2019-05-26T19:30:28.273Z,10.15
2019-05-26T19:32:58.935Z,8.55
2019-05-26T19:35:29.671Z,4.80
2019-05-26T19:38:01.574Z,6.33
2019-05-26T19:40:32.619Z,5.62
2019-05-26T19:43:09.476Z,5.15
2019-05-26T19:45:42.797Z,4.47
2019-05-26T19:48:13.834Z,3.85
2019-05-26T19:50:44.580Z,4.83
2019-05-26T19:53:15.246Z,6.05
2019-05-26T19:55:45.902Z,6.15
2019-05-26T19:58:17.453Z,4.42
2019-05-26T20:00:48.051Z,5.15
2019-05-26T20:03:18.060Z,6.33
2019-05-26T20:05:47.984Z,4.70
2019-05-26T20:08:18.048Z,3.37
2019-05-26T20:10:47.867Z,2.90
2019-05-26T20:13:17.721Z,3.72
2019-05-26T20:15:47.609Z,5.10
2019-05-26T20:18:17.524Z,3.67
2019-05-26T20:20:47.494Z,3.83
2019-05-26T20:23:17.819Z,5.17
2019-05-26T20:25:47.649Z,9.15
2019-05-26T20:28:17.420Z,4.37
2019-05-26T20:30:47.319Z,4.17
2019-05-26T20:33:17.584Z,4.22
2019-05-26T20:35:47.427Z,4.15
2019-05-26T20:38:17.643Z,4.28
2019-05-26T20:40:47.558Z,4.62
2019-05-26T20:43:18.664Z,5.67
2019-05-26T20:45:48.568Z,4.40
2019-05-26T20:48:20.270Z,4.30
2019-05-26T20:50:50.681Z,6.78
2019-05-26T20:53:20.947Z,6.17
2019-05-26T20:55:50.945Z,5.55
2019-05-26T20:58:20.729Z,5.87
2019-05-26T21:00:53.309Z,6.90
2019-05-26T21:03:22.457Z,6.92
2019-05-26T21:05:52.343Z,7.25
2019-05-26T21:08:22.199Z,6.55
2019-05-26T21:10:52.104Z,11.53
2019-05-26T21:13:22.024Z,8.13
2019-05-26T21:15:51.908Z,9.95
2019-05-26T21:18:21.707Z,9.78
2019-05-26T21:20:51.595Z,9.90
2019-05-26T21:23:22.763Z,10.50
2019-05-26T21:25:52.816Z,9.13
2019-05-26T21:28:22.578Z,10.32
2019-05-26T21:30:52.533Z,10.75
2019-05-26T21:33:22.410Z,10.28
2019-05-26T21:35:52.287Z,9.03
2019-05-26T21:38:23.144Z,9.28
2019-05-26T21:40:52.979Z,8.63
2019-05-26T21:43:22.822Z,13.43
2019-05-26T21:45:52.727Z,10.63
2019-05-26T21:48:22.520Z,12.68
2019-05-26T21:50:52.330Z,11.00
2019-05-26T21:53:22.112Z,11.10
2019-05-26T21:55:51.887Z,12.60
2019-05-26T21:58:21.770Z,10.58
2019-05-26T22:00:52.507Z,12.60
2019-05-26T22:03:22.380Z,12.63
2019-05-26T22:05:52.262Z,12.70
2019-05-26T22:08:22.154Z,12.95
2019-05-26T22:10:52.909Z,13.83
2019-05-26T22:13:23.848Z,17.65
2019-05-26T22:15:53.625Z,13.70
2019-05-26T22:18:23.889Z,13.38
2019-05-26T22:20:53.735Z,13.38
2019-05-26T22:23:23.628Z,12.90
2019-05-26T22:25:53.430Z,15.10
2019-05-26T22:28:23.180Z,14.40
2019-05-26T22:30:53.048Z,15.93
2019-05-26T22:33:22.899Z,14.45
2019-05-26T22:35:52.637Z,13.90
2019-05-26T22:38:22.500Z,13.83
2019-05-26T22:40:52.270Z,13.70
2019-05-26T22:43:22.166Z,11.33
2019-05-26T22:45:51.971Z,13.95
2019-05-26T22:48:21.945Z,17.02
2019-05-26T22:50:51.793Z,13.15
2019-05-26T22:53:22.969Z,14.85
2019-05-26T22:55:52.785Z,12.35
2019-05-26T22:58:22.654Z,13.58
2019-05-26T23:00:53.114Z,13.08
2019-05-26T23:03:23.692Z,13.85
2019-05-26T23:05:54.329Z,20.45
2019-05-26T23:08:24.981Z,18.20
2019-05-26T23:10:55.523Z,13.58
2019-05-26T23:13:26.181Z,15.53
2019-05-26T23:15:56.720Z,12.73
2019-05-26T23:18:27.256Z,14.43
2019-05-26T23:20:58.986Z,16.90
2019-05-26T23:23:29.608Z,15.58
2019-05-26T23:26:00.232Z,16.93
2019-05-26T23:28:30.934Z,18.75
2019-05-26T23:31:01.629Z,12.03
2019-05-26T23:33:32.193Z,14.63
2019-05-26T23:36:02.762Z,15.45
2019-05-26T23:38:33.358Z,14.93
2019-05-26T23:41:03.926Z,16.40
2019-05-26T23:43:34.625Z,15.18
2019-05-26T23:46:05.180Z,15.85
2019-05-26T23:48:35.792Z,23.32
2019-05-26T23:51:06.409Z,18.73
2019-05-26T23:53:36.928Z,17.62
2019-05-26T23:56:07.440Z,19.45
2019-05-26T23:58:37.938Z,20.50
